Airfield :
LOGIN :

Register | Disclaimer

   EN    FR    IT 

 










Legend :    VFR   Marginal VFR   IFR   Intensive IFR   Very Intensive IFR
Visi :
Ceiling :
>= 8 km
>= 3000ft
5 to 8 km
1000 to 3000 ft
1500m to 5 km
500 to 1000 ft
800 to 1500m
200 to 500 ft
< 800m
< 200 ft
Symbols :   Thunderstorms  Fog  Heavy snow  Heavy precipitations  Wind > 20 kt
SIGMETs :     Misc.  Thunderstorms  Icing  Turbulence  Mountain Waves  Volcanic Ashes







- Airport Elevation : 989 ft
- IATA code : TRN


LIMF - Torino Caselle

CURRENT METAR :
  • 141650Z 04002KT 4000 BCFG NSC 11/11 Q1027

EXPIRED METARs :
  • 141620Z 04002KT 5000 BR NSC 12/11 Q1027
  • 141550Z 09003KT 7000 NSC 13/12 Q1027
  • 141520Z 10003KT 8000 NSC 13/12 Q1027
  • 141450Z 09004KT 8000 NSC 14/12 Q1027
  • 141420Z 11004KT 8000 NSC 14/12 Q1027

TAF TAF LIMF
Valid from the 14 at 12:00 until the 15 at 12:00 UTC


141100Z 1412/1512 VRB05KT CAVOK
BECMG 1421/1424 3000 BR
TEMPO 1502/1508 1200 BCFG
No reported NOTAMs for that airfield.



MET'MAP, your aeronautical weather chart ! - Copyright ORBIFLY December 2007 - Disclaimer

ORBIFLY MET'MAP TEAM :

Programming & Development : Alexandra Zaïnal
Concept & Development : Baudouin d'Aumeries
Co-Development & Prog : Marc-Olivier Méhu
Technical & hardware support : Manuel Goepfert

Contact : metmap@orbifly.com




SOURCES & CREDITS :

   NOAA